<?xml version="1.0" encoding="UTF-8"?>
<gpx xmlns="http://www.topografix.com/GPX/1/1" xmlns:gpsies="http://www.gpsies.com/GPX/1/0" creator="GPSies http://www.gpsies.com - Rundwanderung_holtwickparkplatz-uhlenhof" version="1.1" xmlns:xsi="http://www.w3.org/2001/XMLSchema-instance" xsi:schemaLocation="http://www.topografix.com/GPX/1/1 http://www.topografix.com/GPX/1/1/gpx.xsd http://www.gpsies.com/GPX/1/0 http://www.gpsies.com/gpsies.xsd">
  <metadata>
    <name>Rundwanderung_holtwickparkplatz-uhlenhof</name>
    <link href="http://www.gpsies.com/map.do?fileId=latcvtriujglluqy">
      <text>Rundwanderung_holtwickparkplatz-uhlenhof on GPSies.com</text>
    </link>
    <time>2011-11-13T10:12:57Z</time>
    <extensions>
      <gpsies:property>round trip</gpsies:property>
      <gpsies:trackLengthMeter>10860.3395451228</gpsies:trackLengthMeter>
      <gpsies:totalAscentMeter>140.0</gpsies:totalAscentMeter>
      <gpsies:totalDescentMeter>138.0</gpsies:totalDescentMeter>
      <gpsies:minHeightMeter>55.0</gpsies:minHeightMeter>
      <gpsies:maxHeightMeter>161.0</gpsies:maxHeightMeter>
    </extensions>
  </metadata>
  <trk>
    <name>Rundwanderung_holtwickparkplatz-uhlenhof on GPSies.com</name>
    <link href="http://www.gpsies.com/map.do?fileId=latcvtriujglluqy" />
    <trkseg>
      <trkpt lat="51.75399960" lon="7.124080070">
        <ele>81.000000</ele>
        <time>2011-11-13T10:12:57Z</time>
      </trkpt>
      <trkpt lat="51.75401350" lon="7.122829200">
        <ele>83.000000</ele>
        <time>2011-11-13T10:13:28Z</time>
      </trkpt>
      <trkpt lat="51.75383780" lon="7.121808700">
        <ele>85.000000</ele>
        <time>2011-11-13T10:13:54Z</time>
      </trkpt>
      <trkpt lat="51.75482080" lon="7.119191470">
        <ele>90.000000</ele>
        <time>2011-11-13T10:15:10Z</time>
      </trkpt>
      <trkpt lat="51.75585430" lon="7.116341140">
        <ele>99.000000</ele>
        <time>2011-11-13T10:16:32Z</time>
      </trkpt>
      <trkpt lat="51.75643230" lon="7.114724190">
        <ele>104.00000</ele>
        <time>2011-11-13T10:17:18Z</time>
      </trkpt>
      <trkpt lat="51.75636540" lon="7.114309580">
        <ele>103.00000</ele>
        <time>2011-11-13T10:17:29Z</time>
      </trkpt>
      <trkpt lat="51.75637650" lon="7.113759760">
        <ele>103.00000</ele>
        <time>2011-11-13T10:17:42Z</time>
      </trkpt>
      <trkpt lat="51.75659210" lon="7.113285640">
        <ele>106.00000</ele>
        <time>2011-11-13T10:17:57Z</time>
      </trkpt>
      <trkpt lat="51.75678940" lon="7.112714210">
        <ele>109.00000</ele>
        <time>2011-11-13T10:18:13Z</time>
      </trkpt>
      <trkpt lat="51.75702930" lon="7.112326630">
        <ele>109.00000</ele>
        <time>2011-11-13T10:18:27Z</time>
      </trkpt>
      <trkpt lat="51.75730820" lon="7.112002150">
        <ele>114.00000</ele>
        <time>2011-11-13T10:18:40Z</time>
      </trkpt>
      <trkpt lat="51.75746450" lon="7.111731750">
        <ele>114.00000</ele>
        <time>2011-11-13T10:18:50Z</time>
      </trkpt>
      <trkpt lat="51.75768210" lon="7.111371220">
        <ele>114.00000</ele>
        <time>2011-11-13T10:19:02Z</time>
      </trkpt>
      <trkpt lat="51.75806700" lon="7.111037720">
        <ele>115.00000</ele>
        <time>2011-11-13T10:19:20Z</time>
      </trkpt>
      <trkpt lat="51.75847430" lon="7.110623110">
        <ele>115.00000</ele>
        <time>2011-11-13T10:19:39Z</time>
      </trkpt>
      <trkpt lat="51.75886620" lon="7.110002880">
        <ele>123.00000</ele>
        <time>2011-11-13T10:20:01Z</time>
      </trkpt>
      <trkpt lat="51.75927190" lon="7.109370070">
        <ele>128.00000</ele>
        <time>2011-11-13T10:20:23Z</time>
      </trkpt>
      <trkpt lat="51.75958980" lon="7.108867720">
        <ele>119.00000</ele>
        <time>2011-11-13T10:20:41Z</time>
      </trkpt>
      <trkpt lat="51.75985330" lon="7.108476320">
        <ele>122.00000</ele>
        <time>2011-11-13T10:20:55Z</time>
      </trkpt>
      <trkpt lat="51.76009780" lon="7.108099360">
        <ele>122.00000</ele>
        <time>2011-11-13T10:21:09Z</time>
      </trkpt>
      <trkpt lat="51.76023170" lon="7.108207520">
        <ele>122.00000</ele>
        <time>2011-11-13T10:21:15Z</time>
      </trkpt>
      <trkpt lat="51.76076720" lon="7.110902520">
        <ele>120.00000</ele>
        <time>2011-11-13T10:22:25Z</time>
      </trkpt>
      <trkpt lat="51.76234600" lon="7.110415800">
        <ele>123.00000</ele>
        <time>2011-11-13T10:23:29Z</time>
      </trkpt>
      <trkpt lat="51.76241850" lon="7.112101300">
        <ele>129.00000</ele>
        <time>2011-11-13T10:24:11Z</time>
      </trkpt>
      <trkpt lat="51.76309040" lon="7.113358880">
        <ele>137.00000</ele>
        <time>2011-11-13T10:24:52Z</time>
      </trkpt>
      <trkpt lat="51.76417570" lon="7.115814810">
        <ele>150.00000</ele>
        <time>2011-11-13T10:26:07Z</time>
      </trkpt>
      <trkpt lat="51.76478940" lon="7.116463770">
        <ele>157.00000</ele>
        <time>2011-11-13T10:26:37Z</time>
      </trkpt>
      <trkpt lat="51.76509620" lon="7.116815290">
        <ele>157.00000</ele>
        <time>2011-11-13T10:26:52Z</time>
      </trkpt>
      <trkpt lat="51.76534160" lon="7.117256950">
        <ele>161.00000</ele>
        <time>2011-11-13T10:27:06Z</time>
      </trkpt>
      <trkpt lat="51.76550340" lon="7.117743670">
        <ele>159.00000</ele>
        <time>2011-11-13T10:27:20Z</time>
      </trkpt>
      <trkpt lat="51.76557590" lon="7.117914930">
        <ele>159.00000</ele>
        <time>2011-11-13T10:27:25Z</time>
      </trkpt>
      <trkpt lat="51.76569300" lon="7.118167300">
        <ele>155.00000</ele>
        <time>2011-11-13T10:27:33Z</time>
      </trkpt>
      <trkpt lat="51.76579680" lon="7.118807690">
        <ele>153.00000</ele>
        <time>2011-11-13T10:27:49Z</time>
      </trkpt>
      <trkpt lat="51.76589390" lon="7.119384100">
        <ele>153.00000</ele>
        <time>2011-11-13T10:28:04Z</time>
      </trkpt>
      <trkpt lat="51.76573880" lon="7.120802870">
        <ele>154.00000</ele>
        <time>2011-11-13T10:28:40Z</time>
      </trkpt>
      <trkpt lat="51.76549810" lon="7.122624470">
        <ele>153.00000</ele>
        <time>2011-11-13T10:29:26Z</time>
      </trkpt>
      <trkpt lat="51.76540860" lon="7.123277880">
        <ele>152.00000</ele>
        <time>2011-11-13T10:29:43Z</time>
      </trkpt>
      <trkpt lat="51.76534720" lon="7.123674470">
        <ele>152.00000</ele>
        <time>2011-11-13T10:29:53Z</time>
      </trkpt>
      <trkpt lat="51.76533600" lon="7.124548770">
        <ele>152.00000</ele>
        <time>2011-11-13T10:30:14Z</time>
      </trkpt>
      <trkpt lat="51.76531600" lon="7.125295080">
        <ele>151.00000</ele>
        <time>2011-11-13T10:30:33Z</time>
      </trkpt>
      <trkpt lat="51.76530810" lon="7.125792610">
        <ele>151.00000</ele>
        <time>2011-11-13T10:30:45Z</time>
      </trkpt>
      <trkpt lat="51.76511320" lon="7.126680290">
        <ele>150.00000</ele>
        <time>2011-11-13T10:31:09Z</time>
      </trkpt>
      <trkpt lat="51.76553690" lon="7.128181160">
        <ele>149.00000</ele>
        <time>2011-11-13T10:31:49Z</time>
      </trkpt>
      <trkpt lat="51.76577230" lon="7.129243600">
        <ele>146.00000</ele>
        <time>2011-11-13T10:32:17Z</time>
      </trkpt>
      <trkpt lat="51.76593850" lon="7.130046930">
        <ele>138.00000</ele>
        <time>2011-11-13T10:32:38Z</time>
      </trkpt>
      <trkpt lat="51.76611700" lon="7.131020370">
        <ele>133.00000</ele>
        <time>2011-11-13T10:33:04Z</time>
      </trkpt>
      <trkpt lat="51.76617830" lon="7.131903680">
        <ele>129.00000</ele>
        <time>2011-11-13T10:33:26Z</time>
      </trkpt>
      <trkpt lat="51.76610580" lon="7.133251620">
        <ele>119.00000</ele>
        <time>2011-11-13T10:33:59Z</time>
      </trkpt>
      <trkpt lat="51.76596840" lon="7.134507310">
        <ele>115.00000</ele>
        <time>2011-11-13T10:34:31Z</time>
      </trkpt>
      <trkpt lat="51.76555920" lon="7.137050320">
        <ele>109.00000</ele>
        <time>2011-11-13T10:35:36Z</time>
      </trkpt>
      <trkpt lat="51.76531930" lon="7.137852510">
        <ele>108.00000</ele>
        <time>2011-11-13T10:35:58Z</time>
      </trkpt>
      <trkpt lat="51.76512410" lon="7.138708780">
        <ele>105.00000</ele>
        <time>2011-11-13T10:36:20Z</time>
      </trkpt>
      <trkpt lat="51.76495510" lon="7.139367890">
        <ele>102.00000</ele>
        <time>2011-11-13T10:36:38Z</time>
      </trkpt>
      <trkpt lat="51.76463880" lon="7.140709750">
        <ele>98.000000</ele>
        <time>2011-11-13T10:37:14Z</time>
      </trkpt>
      <trkpt lat="51.76450160" lon="7.141252450">
        <ele>95.000000</ele>
        <time>2011-11-13T10:37:28Z</time>
      </trkpt>
      <trkpt lat="51.76435430" lon="7.141683190">
        <ele>95.000000</ele>
        <time>2011-11-13T10:37:40Z</time>
      </trkpt>
      <trkpt lat="51.76367370" lon="7.142494390">
        <ele>93.000000</ele>
        <time>2011-11-13T10:38:14Z</time>
      </trkpt>
      <trkpt lat="51.76288290" lon="7.143384040">
        <ele>84.000000</ele>
        <time>2011-11-13T10:38:53Z</time>
      </trkpt>
      <trkpt lat="51.76242970" lon="7.143945550">
        <ele>83.000000</ele>
        <time>2011-11-13T10:39:16Z</time>
      </trkpt>
      <trkpt lat="51.76213420" lon="7.144374840">
        <ele>83.000000</ele>
        <time>2011-11-13T10:39:32Z</time>
      </trkpt>
      <trkpt lat="51.76166540" lon="7.145243470">
        <ele>75.000000</ele>
        <time>2011-11-13T10:40:00Z</time>
      </trkpt>
      <trkpt lat="51.76135860" lon="7.145793290">
        <ele>82.000000</ele>
        <time>2011-11-13T10:40:19Z</time>
      </trkpt>
      <trkpt lat="51.76093460" lon="7.146027640">
        <ele>71.000000</ele>
        <time>2011-11-13T10:40:36Z</time>
      </trkpt>
      <trkpt lat="51.76052180" lon="7.146298040">
        <ele>71.000000</ele>
        <time>2011-11-13T10:40:54Z</time>
      </trkpt>
      <trkpt lat="51.76043810" lon="7.146352120">
        <ele>71.000000</ele>
        <time>2011-11-13T10:40:58Z</time>
      </trkpt>
      <trkpt lat="51.76008100" lon="7.146694630">
        <ele>68.000000</ele>
        <time>2011-11-13T10:41:15Z</time>
      </trkpt>
      <trkpt lat="51.75989140" lon="7.146739690">
        <ele>68.000000</ele>
        <time>2011-11-13T10:41:22Z</time>
      </trkpt>
      <trkpt lat="51.75963470" lon="7.146721670">
        <ele>68.000000</ele>
        <time>2011-11-13T10:41:32Z</time>
      </trkpt>
      <trkpt lat="51.75946180" lon="7.146910950">
        <ele>69.000000</ele>
        <time>2011-11-13T10:41:41Z</time>
      </trkpt>
      <trkpt lat="51.75970730" lon="7.147172330">
        <ele>68.000000</ele>
        <time>2011-11-13T10:41:53Z</time>
      </trkpt>
      <trkpt lat="51.76008100" lon="7.148064660">
        <ele>68.000000</ele>
        <time>2011-11-13T10:42:19Z</time>
      </trkpt>
      <trkpt lat="51.76030980" lon="7.148677570">
        <ele>68.000000</ele>
        <time>2011-11-13T10:42:37Z</time>
      </trkpt>
      <trkpt lat="51.76042130" lon="7.148911920">
        <ele>81.000000</ele>
        <time>2011-11-13T10:42:44Z</time>
      </trkpt>
      <trkpt lat="51.76007700" lon="7.150427700">
        <ele>73.000000</ele>
        <time>2011-11-13T10:43:24Z</time>
      </trkpt>
      <trkpt lat="51.75995210" lon="7.151420000">
        <ele>75.000000</ele>
        <time>2011-11-13T10:43:49Z</time>
      </trkpt>
      <trkpt lat="51.75931140" lon="7.152134490">
        <ele>75.000000</ele>
        <time>2011-11-13T10:44:21Z</time>
      </trkpt>
      <trkpt lat="51.75889510" lon="7.152468470">
        <ele>75.000000</ele>
        <time>2011-11-13T10:44:39Z</time>
      </trkpt>
      <trkpt lat="51.75867030" lon="7.153184060">
        <ele>76.000000</ele>
        <time>2011-11-13T10:44:59Z</time>
      </trkpt>
      <trkpt lat="51.75762020" lon="7.153235970">
        <ele>73.000000</ele>
        <time>2011-11-13T10:45:41Z</time>
      </trkpt>
      <trkpt lat="51.75675000" lon="7.153298650">
        <ele>73.000000</ele>
        <time>2011-11-13T10:46:16Z</time>
      </trkpt>
      <trkpt lat="51.75633900" lon="7.153252030">
        <ele>73.000000</ele>
        <time>2011-11-13T10:46:33Z</time>
      </trkpt>
      <trkpt lat="51.75578960" lon="7.152984650">
        <ele>74.000000</ele>
        <time>2011-11-13T10:46:55Z</time>
      </trkpt>
      <trkpt lat="51.75501240" lon="7.152527350">
        <ele>66.000000</ele>
        <time>2011-11-13T10:47:29Z</time>
      </trkpt>
      <trkpt lat="51.75412120" lon="7.151966050">
        <ele>66.000000</ele>
        <time>2011-11-13T10:48:07Z</time>
      </trkpt>
      <trkpt lat="51.75357600" lon="7.151607970">
        <ele>65.000000</ele>
        <time>2011-11-13T10:48:30Z</time>
      </trkpt>
      <trkpt lat="51.75349120" lon="7.151575210">
        <ele>65.000000</ele>
        <time>2011-11-13T10:48:34Z</time>
      </trkpt>
      <trkpt lat="51.75298830" lon="7.151758750">
        <ele>65.000000</ele>
        <time>2011-11-13T10:48:55Z</time>
      </trkpt>
      <trkpt lat="51.75285670" lon="7.151610180">
        <ele>68.000000</ele>
        <time>2011-11-13T10:49:01Z</time>
      </trkpt>
      <trkpt lat="51.75235920" lon="7.151784430">
        <ele>68.000000</ele>
        <time>2011-11-13T10:49:21Z</time>
      </trkpt>
      <trkpt lat="51.75162030" lon="7.152330750">
        <ele>67.000000</ele>
        <time>2011-11-13T10:49:54Z</time>
      </trkpt>
      <trkpt lat="51.75115300" lon="7.151924230">
        <ele>60.000000</ele>
        <time>2011-11-13T10:50:15Z</time>
      </trkpt>
      <trkpt lat="51.75094870" lon="7.151796750">
        <ele>60.000000</ele>
        <time>2011-11-13T10:50:24Z</time>
      </trkpt>
      <trkpt lat="51.75041730" lon="7.152316470">
        <ele>57.000000</ele>
        <time>2011-11-13T10:50:49Z</time>
      </trkpt>
      <trkpt lat="51.74992970" lon="7.153115090">
        <ele>55.000000</ele>
        <time>2011-11-13T10:51:17Z</time>
      </trkpt>
      <trkpt lat="51.74962230" lon="7.153580370">
        <ele>55.000000</ele>
        <time>2011-11-13T10:51:33Z</time>
      </trkpt>
      <trkpt lat="51.74917970" lon="7.153670860">
        <ele>58.000000</ele>
        <time>2011-11-13T10:51:51Z</time>
      </trkpt>
      <trkpt lat="51.74878810" lon="7.153433300">
        <ele>58.000000</ele>
        <time>2011-11-13T10:52:08Z</time>
      </trkpt>
      <trkpt lat="51.74846680" lon="7.153011790">
        <ele>66.000000</ele>
        <time>2011-11-13T10:52:25Z</time>
      </trkpt>
      <trkpt lat="51.74811600" lon="7.152509990">
        <ele>75.000000</ele>
        <time>2011-11-13T10:52:43Z</time>
      </trkpt>
      <trkpt lat="51.74755860" lon="7.151726900">
        <ele>76.000000</ele>
        <time>2011-11-13T10:53:13Z</time>
      </trkpt>
      <trkpt lat="51.74724440" lon="7.151404710">
        <ele>76.000000</ele>
        <time>2011-11-13T10:53:28Z</time>
      </trkpt>
      <trkpt lat="51.74695190" lon="7.151389490">
        <ele>74.000000</ele>
        <time>2011-11-13T10:53:40Z</time>
      </trkpt>
      <trkpt lat="51.74672220" lon="7.151435090">
        <ele>74.000000</ele>
        <time>2011-11-13T10:53:49Z</time>
      </trkpt>
      <trkpt lat="51.74638960" lon="7.151729350">
        <ele>74.000000</ele>
        <time>2011-11-13T10:54:04Z</time>
      </trkpt>
      <trkpt lat="51.74595040" lon="7.152037010">
        <ele>78.000000</ele>
        <time>2011-11-13T10:54:23Z</time>
      </trkpt>
      <trkpt lat="51.74556680" lon="7.152306170">
        <ele>75.000000</ele>
        <time>2011-11-13T10:54:40Z</time>
      </trkpt>
      <trkpt lat="51.74507470" lon="7.152462070">
        <ele>78.000000</ele>
        <time>2011-11-13T10:55:00Z</time>
      </trkpt>
      <trkpt lat="51.74385710" lon="7.152946320">
        <ele>81.000000</ele>
        <time>2011-11-13T10:55:50Z</time>
      </trkpt>
      <trkpt lat="51.74239230" lon="7.153440630">
        <ele>75.000000</ele>
        <time>2011-11-13T10:56:50Z</time>
      </trkpt>
      <trkpt lat="51.74221330" lon="7.152062780">
        <ele>77.000000</ele>
        <time>2011-11-13T10:57:25Z</time>
      </trkpt>
      <trkpt lat="51.74207310" lon="7.151009260">
        <ele>74.000000</ele>
        <time>2011-11-13T10:57:52Z</time>
      </trkpt>
      <trkpt lat="51.74199730" lon="7.149763010">
        <ele>76.000000</ele>
        <time>2011-11-13T10:58:23Z</time>
      </trkpt>
      <trkpt lat="51.74176420" lon="7.146386620">
        <ele>78.000000</ele>
        <time>2011-11-13T10:59:47Z</time>
      </trkpt>
      <trkpt lat="51.74174640" lon="7.145970900">
        <ele>78.000000</ele>
        <time>2011-11-13T10:59:57Z</time>
      </trkpt>
      <trkpt lat="51.74154590" lon="7.142882920">
        <ele>79.000000</ele>
        <time>2011-11-13T11:01:14Z</time>
      </trkpt>
      <trkpt lat="51.74082710" lon="7.138072020">
        <ele>79.000000</ele>
        <time>2011-11-13T11:03:17Z</time>
      </trkpt>
      <trkpt lat="51.73988660" lon="7.132633760">
        <ele>71.000000</ele>
        <time>2011-11-13T11:05:37Z</time>
      </trkpt>
      <trkpt lat="51.74000780" lon="7.132010090">
        <ele>73.000000</ele>
        <time>2011-11-13T11:05:53Z</time>
      </trkpt>
      <trkpt lat="51.74021590" lon="7.131534130">
        <ele>73.000000</ele>
        <time>2011-11-13T11:06:08Z</time>
      </trkpt>
      <trkpt lat="51.74071060" lon="7.130967160">
        <ele>75.000000</ele>
        <time>2011-11-13T11:06:32Z</time>
      </trkpt>
      <trkpt lat="51.74119940" lon="7.130602960">
        <ele>75.000000</ele>
        <time>2011-11-13T11:06:53Z</time>
      </trkpt>
      <trkpt lat="51.74225300" lon="7.130082980">
        <ele>79.000000</ele>
        <time>2011-11-13T11:07:37Z</time>
      </trkpt>
      <trkpt lat="51.74294460" lon="7.129372070">
        <ele>81.000000</ele>
        <time>2011-11-13T11:08:10Z</time>
      </trkpt>
      <trkpt lat="51.74320180" lon="7.129028410">
        <ele>81.000000</ele>
        <time>2011-11-13T11:08:24Z</time>
      </trkpt>
      <trkpt lat="51.74325760" lon="7.128812090">
        <ele>81.000000</ele>
        <time>2011-11-13T11:08:29Z</time>
      </trkpt>
      <trkpt lat="51.74367650" lon="7.128744290">
        <ele>81.000000</ele>
        <time>2011-11-13T11:08:46Z</time>
      </trkpt>
      <trkpt lat="51.74438010" lon="7.128461700">
        <ele>83.000000</ele>
        <time>2011-11-13T11:09:15Z</time>
      </trkpt>
      <trkpt lat="51.74615960" lon="7.128262280">
        <ele>84.000000</ele>
        <time>2011-11-13T11:10:27Z</time>
      </trkpt>
      <trkpt lat="51.74645540" lon="7.128045960">
        <ele>83.000000</ele>
        <time>2011-11-13T11:10:40Z</time>
      </trkpt>
      <trkpt lat="51.74716410" lon="7.128280300">
        <ele>76.000000</ele>
        <time>2011-11-13T11:11:09Z</time>
      </trkpt>
      <trkpt lat="51.74739850" lon="7.128721960">
        <ele>76.000000</ele>
        <time>2011-11-13T11:11:23Z</time>
      </trkpt>
      <trkpt lat="51.74856480" lon="7.129452040">
        <ele>77.000000</ele>
        <time>2011-11-13T11:12:13Z</time>
      </trkpt>
      <trkpt lat="51.74861570" lon="7.129029090">
        <ele>77.000000</ele>
        <time>2011-11-13T11:12:24Z</time>
      </trkpt>
      <trkpt lat="51.74860940" lon="7.128406490">
        <ele>78.000000</ele>
        <time>2011-11-13T11:12:39Z</time>
      </trkpt>
      <trkpt lat="51.74900560" lon="7.128107500">
        <ele>81.000000</ele>
        <time>2011-11-13T11:12:57Z</time>
      </trkpt>
      <trkpt lat="51.74919230" lon="7.127828140">
        <ele>82.000000</ele>
        <time>2011-11-13T11:13:07Z</time>
      </trkpt>
      <trkpt lat="51.74942970" lon="7.127369950">
        <ele>82.000000</ele>
        <time>2011-11-13T11:13:22Z</time>
      </trkpt>
      <trkpt lat="51.74963620" lon="7.127270810">
        <ele>91.000000</ele>
        <time>2011-11-13T11:13:30Z</time>
      </trkpt>
      <trkpt lat="51.74968080" lon="7.127018430">
        <ele>89.000000</ele>
        <time>2011-11-13T11:13:37Z</time>
      </trkpt>
      <trkpt lat="51.75085260" lon="7.124729040">
        <ele>96.000000</ele>
        <time>2011-11-13T11:14:51Z</time>
      </trkpt>
      <trkpt lat="51.75172310" lon="7.123872760">
        <ele>95.000000</ele>
        <time>2011-11-13T11:15:31Z</time>
      </trkpt>
      <trkpt lat="51.75184860" lon="7.122411880">
        <ele>94.000000</ele>
        <time>2011-11-13T11:16:08Z</time>
      </trkpt>
      <trkpt lat="51.75204670" lon="7.120925390">
        <ele>99.000000</ele>
        <time>2011-11-13T11:16:46Z</time>
      </trkpt>
      <trkpt lat="51.75285920" lon="7.121645520">
        <ele>91.000000</ele>
        <time>2011-11-13T11:17:23Z</time>
      </trkpt>
      <trkpt lat="51.75382790" lon="7.122474670">
        <ele>83.000000</ele>
        <time>2011-11-13T11:18:07Z</time>
      </trkpt>
    </trkseg>
  </trk>
</gpx>

